sensor_id;sensor_type;location;lat;lon;timestamp;P1;durP1;ratioP1;P2;durP2;ratioP2
4504;SDS011;2265;48.794;9.520;2023-02-28T00:01:10;1.83;;;1.70;;
4504;SDS011;2265;48.794;9.520;2023-02-28T00:03:37;2.03;;;1.80;;
4504;SDS011;2265;48.794;9.520;2023-02-28T00:06:05;1.50;;;1.40;;
4504;SDS011;2265;48.794;9.520;2023-02-28T00:08:34;1.73;;;1.40;;
4504;SDS011;2265;48.794;9.520;2023-02-28T00:11:04;1.77;;;1.43;;
4504;SDS011;2265;48.794;9.520;2023-02-28T00:13:34;3.23;;;1.90;;
4504;SDS011;2265;48.794;9.520;2023-02-28T00:16:04;1.60;;;1.43;;
4504;SDS011;2265;48.794;9.520;2023-02-28T00:18:33;1.90;;;1.80;;
4504;SDS011;2265;48.794;9.520;2023-02-28T00:21:00;2.17;;;1.37;;
4504;SDS011;2265;48.794;9.520;2023-02-28T00:23:27;2.13;;;1.90;;
4504;SDS011;2265;48.794;9.520;2023-02-28T00:25:55;1.60;;;1.50;;
4504;SDS011;2265;48.794;9.520;2023-02-28T00:28:23;5.73;;;2.33;;
4504;SDS011;2265;48.794;9.520;2023-02-28T00:30:51;2.30;;;1.40;;
4504;SDS011;2265;48.794;9.520;2023-02-28T00:33:18;1.73;;;1.57;;
4504;SDS011;2265;48.794;9.520;2023-02-28T00:35:46;1.67;;;1.50;;
4504;SDS011;2265;48.794;9.520;2023-02-28T00:38:13;1.67;;;1.60;;
4504;SDS011;2265;48.794;9.520;2023-02-28T00:40:41;1.70;;;1.60;;
4504;SDS011;2265;48.794;9.520;2023-02-28T00:43:09;1.67;;;1.57;;
4504;SDS011;2265;48.794;9.520;2023-02-28T00:45:37;1.70;;;1.37;;
4504;SDS011;2265;48.794;9.520;2023-02-28T00:48:05;5.40;;;1.60;;
4504;SDS011;2265;48.794;9.520;2023-02-28T00:50:32;1.30;;;1.23;;
4504;SDS011;2265;48.794;9.520;2023-02-28T00:52:59;1.63;;;1.53;;
4504;SDS011;2265;48.794;9.520;2023-02-28T00:55:26;1.30;;;1.20;;
4504;SDS011;2265;48.794;9.520;2023-02-28T00:57:53;2.63;;;1.40;;
4504;SDS011;2265;48.794;9.520;2023-02-28T01:00:20;2.93;;;2.13;;
4504;SDS011;2265;48.794;9.520;2023-02-28T01:02:49;1.90;;;1.60;;
4504;SDS011;2265;48.794;9.520;2023-02-28T01:05:16;2.13;;;1.83;;
4504;SDS011;2265;48.794;9.520;2023-02-28T01:07:43;2.67;;;1.50;;
4504;SDS011;2265;48.794;9.520;2023-02-28T01:10:11;2.00;;;1.60;;
4504;SDS011;2265;48.794;9.520;2023-02-28T01:12:38;2.60;;;1.90;;
4504;SDS011;2265;48.794;9.520;2023-02-28T01:15:05;2.40;;;1.47;;
4504;SDS011;2265;48.794;9.520;2023-02-28T01:17:33;1.67;;;1.60;;
4504;SDS011;2265;48.794;9.520;2023-02-28T01:20:01;1.90;;;1.50;;
4504;SDS011;2265;48.794;9.520;2023-02-28T01:22:29;3.33;;;1.93;;
4504;SDS011;2265;48.794;9.520;2023-02-28T01:24:56;2.13;;;1.83;;
4504;SDS011;2265;48.794;9.520;2023-02-28T01:27:23;2.33;;;2.17;;
4504;SDS011;2265;48.794;9.520;2023-02-28T01:29:51;2.77;;;2.17;;
4504;SDS011;2265;48.794;9.520;2023-02-28T01:32:18;1.73;;;1.37;;
4504;SDS011;2265;48.794;9.520;2023-02-28T01:34:45;2.30;;;1.83;;
4504;SDS011;2265;48.794;9.520;2023-02-28T01:37:14;2.67;;;1.50;;
4504;SDS011;2265;48.794;9.520;2023-02-28T01:39:41;2.50;;;1.50;;
4504;SDS011;2265;48.794;9.520;2023-02-28T01:42:08;2.73;;;1.63;;
4504;SDS011;2265;48.794;9.520;2023-02-28T01:44:57;10.20;;;2.23;;
4504;SDS011;2265;48.794;9.520;2023-02-28T01:47:31;1.47;;;1.43;;
4504;SDS011;2265;48.794;9.520;2023-02-28T01:50:02;1.87;;;1.77;;
4504;SDS011;2265;48.794;9.520;2023-02-28T01:52:33;2.07;;;1.63;;
4504;SDS011;2265;48.794;9.520;2023-02-28T01:55:03;2.43;;;1.73;;
4504;SDS011;2265;48.794;9.520;2023-02-28T01:57:34;2.50;;;1.90;;
4504;SDS011;2265;48.794;9.520;2023-02-28T02:00:05;2.43;;;1.70;;
4504;SDS011;2265;48.794;9.520;2023-02-28T02:02:40;1.40;;;1.30;;
4504;SDS011;2265;48.794;9.520;2023-02-28T02:05:12;1.20;;;1.20;;
4504;SDS011;2265;48.794;9.520;2023-02-28T02:07:44;2.53;;;1.97;;
4504;SDS011;2265;48.794;9.520;2023-02-28T02:10:14;2.63;;;1.43;;
4504;SDS011;2265;48.794;9.520;2023-02-28T02:12:47;3.73;;;1.83;;
4504;SDS011;2265;48.794;9.520;2023-02-28T02:15:28;4.47;;;1.90;;
4504;SDS011;2265;48.794;9.520;2023-02-28T02:18:00;2.40;;;1.97;;
4504;SDS011;2265;48.794;9.520;2023-02-28T02:20:44;2.27;;;1.93;;
4504;SDS011;2265;48.794;9.520;2023-02-28T02:29:54;2.23;;;2.13;;
4504;SDS011;2265;48.794;9.520;2023-02-28T02:32:53;2.07;;;1.77;;
4504;SDS011;2265;48.794;9.520;2023-02-28T02:35:34;2.53;;;1.47;;
4504;SDS011;2265;48.794;9.520;2023-02-28T02:38:10;2.57;;;1.80;;
4504;SDS011;2265;48.794;9.520;2023-02-28T02:40:46;2.30;;;1.80;;
4504;SDS011;2265;48.794;9.520;2023-02-28T02:43:22;2.00;;;1.80;;
4504;SDS011;2265;48.794;9.520;2023-02-28T02:45:56;2.10;;;1.80;;
4504;SDS011;2265;48.794;9.520;2023-02-28T02:48:31;3.53;;;1.80;;
4504;SDS011;2265;48.794;9.520;2023-02-28T02:51:05;4.07;;;2.10;;
4504;SDS011;2265;48.794;9.520;2023-02-28T02:53:40;3.00;;;1.77;;
4504;SDS011;2265;48.794;9.520;2023-02-28T02:56:10;3.13;;;1.53;;
4504;SDS011;2265;48.794;9.520;2023-02-28T02:58:40;2.50;;;2.30;;
4504;SDS011;2265;48.794;9.520;2023-02-28T03:01:10;2.23;;;1.87;;
4504;SDS011;2265;48.794;9.520;2023-02-28T03:03:40;2.53;;;1.90;;
4504;SDS011;2265;48.794;9.520;2023-02-28T03:06:09;3.10;;;1.87;;
4504;SDS011;2265;48.794;9.520;2023-02-28T03:08:37;3.00;;;1.87;;
4504;SDS011;2265;48.794;9.520;2023-02-28T03:11:05;1.50;;;1.50;;
4504;SDS011;2265;48.794;9.520;2023-02-28T03:13:42;1.70;;;1.63;;
4504;SDS011;2265;48.794;9.520;2023-02-28T03:16:29;3.20;;;1.93;;
4504;SDS011;2265;48.794;9.520;2023-02-28T03:19:09;5.40;;;2.47;;
4504;SDS011;2265;48.794;9.520;2023-02-28T03:21:59;4.37;;;2.03;;
4504;SDS011;2265;48.794;9.520;2023-02-28T03:24:49;2.63;;;1.57;;
4504;SDS011;2265;48.794;9.520;2023-02-28T03:27:23;1.93;;;1.83;;
4504;SDS011;2265;48.794;9.520;2023-02-28T03:29:56;2.00;;;1.53;;
4504;SDS011;2265;48.794;9.520;2023-02-28T03:32:28;2.70;;;1.70;;
4504;SDS011;2265;48.794;9.520;2023-02-28T03:35:00;1.57;;;1.43;;
4504;SDS011;2265;48.794;9.520;2023-02-28T03:37:42;1.97;;;1.87;;
4504;SDS011;2265;48.794;9.520;2023-02-28T03:40:12;2.03;;;1.47;;
4504;SDS011;2265;48.794;9.520;2023-02-28T03:42:42;3.10;;;2.20;;
4504;SDS011;2265;48.794;9.520;2023-02-28T03:45:13;3.10;;;2.23;;
4504;SDS011;2265;48.794;9.520;2023-02-28T03:47:46;2.43;;;1.70;;
4504;SDS011;2265;48.794;9.520;2023-02-28T03:50:19;3.83;;;2.23;;
4504;SDS011;2265;48.794;9.520;2023-02-28T03:52:53;1.93;;;1.53;;
4504;SDS011;2265;48.794;9.520;2023-02-28T03:55:27;2.23;;;1.63;;
4504;SDS011;2265;48.794;9.520;2023-02-28T03:57:59;1.50;;;1.40;;
4504;SDS011;2265;48.794;9.520;2023-02-28T04:00:32;2.90;;;2.10;;
4504;SDS011;2265;48.794;9.520;2023-02-28T04:03:03;1.80;;;1.50;;
4504;SDS011;2265;48.794;9.520;2023-02-28T04:05:30;3.00;;;2.03;;
4504;SDS011;2265;48.794;9.520;2023-02-28T04:08:04;2.20;;;1.70;;
4504;SDS011;2265;48.794;9.520;2023-02-28T04:10:32;3.03;;;2.47;;
4504;SDS011;2265;48.794;9.520;2023-02-28T04:12:59;2.83;;;1.73;;
4504;SDS011;2265;48.794;9.520;2023-02-28T04:15:26;2.30;;;2.10;;
4504;SDS011;2265;48.794;9.520;2023-02-28T04:17:53;2.23;;;1.70;;
4504;SDS011;2265;48.794;9.520;2023-02-28T04:20:21;2.23;;;1.73;;
4504;SDS011;2265;48.794;9.520;2023-02-28T04:22:48;2.60;;;2.00;;
4504;SDS011;2265;48.794;9.520;2023-02-28T04:25:17;2.13;;;1.97;;
4504;SDS011;2265;48.794;9.520;2023-02-28T04:27:44;2.37;;;2.23;;
4504;SDS011;2265;48.794;9.520;2023-02-28T04:30:11;2.50;;;1.80;;
4504;SDS011;2265;48.794;9.520;2023-02-28T04:32:38;2.90;;;2.10;;
4504;SDS011;2265;48.794;9.520;2023-02-28T04:35:06;2.60;;;1.93;;
4504;SDS011;2265;48.794;9.520;2023-02-28T04:37:34;2.63;;;1.67;;
4504;SDS011;2265;48.794;9.520;2023-02-28T04:40:02;4.80;;;1.70;;
4504;SDS011;2265;48.794;9.520;2023-02-28T04:42:31;1.80;;;1.67;;
4504;SDS011;2265;48.794;9.520;2023-02-28T04:45:01;6.40;;;2.03;;
4504;SDS011;2265;48.794;9.520;2023-02-28T04:47:28;4.30;;;1.97;;
4504;SDS011;2265;48.794;9.520;2023-02-28T04:49:55;2.00;;;1.50;;
4504;SDS011;2265;48.794;9.520;2023-02-28T04:52:22;1.77;;;1.53;;
4504;SDS011;2265;48.794;9.520;2023-02-28T04:54:49;2.43;;;2.00;;
4504;SDS011;2265;48.794;9.520;2023-02-28T04:57:16;1.80;;;1.70;;
4504;SDS011;2265;48.794;9.520;2023-02-28T04:59:45;4.90;;;1.97;;
4504;SDS011;2265;48.794;9.520;2023-02-28T05:02:12;2.70;;;1.83;;
4504;SDS011;2265;48.794;9.520;2023-02-28T05:04:39;2.10;;;1.97;;
4504;SDS011;2265;48.794;9.520;2023-02-28T05:07:06;1.20;;;1.20;;
4504;SDS011;2265;48.794;9.520;2023-02-28T05:09:34;1.70;;;1.43;;
4504;SDS011;2265;48.794;9.520;2023-02-28T05:12:01;4.23;;;2.20;;
4504;SDS011;2265;48.794;9.520;2023-02-28T05:14:28;1.83;;;1.73;;
4504;SDS011;2265;48.794;9.520;2023-02-28T05:16:57;5.00;;;2.87;;
4504;SDS011;2265;48.794;9.520;2023-02-28T05:19:24;1.60;;;1.50;;
4504;SDS011;2265;48.794;9.520;2023-02-28T05:21:51;2.90;;;1.73;;
4504;SDS011;2265;48.794;9.520;2023-02-28T05:24:20;2.40;;;1.60;;
4504;SDS011;2265;48.794;9.520;2023-02-28T05:26:49;3.13;;;1.87;;
4504;SDS011;2265;48.794;9.520;2023-02-28T05:29:20;4.47;;;2.40;;
4504;SDS011;2265;48.794;9.520;2023-02-28T05:31:48;3.00;;;2.07;;
4504;SDS011;2265;48.794;9.520;2023-02-28T05:34:16;4.00;;;2.37;;
4504;SDS011;2265;48.794;9.520;2023-02-28T05:36:43;2.17;;;2.00;;
4504;SDS011;2265;48.794;9.520;2023-02-28T05:39:10;2.30;;;2.07;;
4504;SDS011;2265;48.794;9.520;2023-02-28T05:41:39;2.20;;;2.00;;
4504;SDS011;2265;48.794;9.520;2023-02-28T05:44:07;2.37;;;1.83;;
4504;SDS011;2265;48.794;9.520;2023-02-28T05:46:34;4.13;;;2.73;;
4504;SDS011;2265;48.794;9.520;2023-02-28T05:49:01;5.30;;;2.87;;
4504;SDS011;2265;48.794;9.520;2023-02-28T05:51:29;3.27;;;1.83;;
4504;SDS011;2265;48.794;9.520;2023-02-28T05:53:58;3.87;;;2.37;;
4504;SDS011;2265;48.794;9.520;2023-02-28T05:56:26;2.73;;;1.63;;
4504;SDS011;2265;48.794;9.520;2023-02-28T05:58:54;5.63;;;2.63;;
4504;SDS011;2265;48.794;9.520;2023-02-28T06:01:31;2.17;;;1.97;;
4504;SDS011;2265;48.794;9.520;2023-02-28T06:04:00;1.80;;;1.70;;
4504;SDS011;2265;48.794;9.520;2023-02-28T06:06:30;7.13;;;2.50;;
4504;SDS011;2265;48.794;9.520;2023-02-28T06:08:59;3.17;;;1.83;;
4504;SDS011;2265;48.794;9.520;2023-02-28T06:11:26;4.90;;;2.70;;
4504;SDS011;2265;48.794;9.520;2023-02-28T06:13:53;3.27;;;2.10;;
4504;SDS011;2265;48.794;9.520;2023-02-28T06:16:22;5.43;;;2.30;;
4504;SDS011;2265;48.794;9.520;2023-02-28T06:18:50;3.87;;;2.30;;
4504;SDS011;2265;48.794;9.520;2023-02-28T06:21:17;3.90;;;2.63;;
4504;SDS011;2265;48.794;9.520;2023-02-28T06:23:46;4.53;;;1.80;;
4504;SDS011;2265;48.794;9.520;2023-02-28T06:26:13;3.90;;;2.17;;
4504;SDS011;2265;48.794;9.520;2023-02-28T06:28:40;5.40;;;2.60;;
4504;SDS011;2265;48.794;9.520;2023-02-28T06:31:08;3.50;;;2.10;;
4504;SDS011;2265;48.794;9.520;2023-02-28T06:33:36;2.27;;;2.03;;
4504;SDS011;2265;48.794;9.520;2023-02-28T06:36:04;3.93;;;3.03;;
4504;SDS011;2265;48.794;9.520;2023-02-28T06:38:32;2.93;;;2.03;;
4504;SDS011;2265;48.794;9.520;2023-02-28T06:41:01;7.40;;;2.50;;
4504;SDS011;2265;48.794;9.520;2023-02-28T06:43:30;5.40;;;3.27;;
4504;SDS011;2265;48.794;9.520;2023-02-28T06:45:59;4.60;;;2.50;;
4504;SDS011;2265;48.794;9.520;2023-02-28T06:48:27;2.90;;;2.40;;
4504;SDS011;2265;48.794;9.520;2023-02-28T06:51:01;2.60;;;1.90;;
4504;SDS011;2265;48.794;9.520;2023-02-28T06:53:28;4.67;;;1.70;;
4504;SDS011;2265;48.794;9.520;2023-02-28T06:55:57;4.03;;;2.57;;
4504;SDS011;2265;48.794;9.520;2023-02-28T06:58:26;3.20;;;2.07;;
4504;SDS011;2265;48.794;9.520;2023-02-28T07:00:53;3.40;;;2.03;;
4504;SDS011;2265;48.794;9.520;2023-02-28T07:03:21;3.50;;;2.17;;
4504;SDS011;2265;48.794;9.520;2023-02-28T07:05:48;4.93;;;2.67;;
4504;SDS011;2265;48.794;9.520;2023-02-28T07:08:15;5.40;;;2.53;;
4504;SDS011;2265;48.794;9.520;2023-02-28T07:10:43;1.87;;;1.83;;
4504;SDS011;2265;48.794;9.520;2023-02-28T07:13:10;4.00;;;3.07;;
4504;SDS011;2265;48.794;9.520;2023-02-28T07:15:39;4.27;;;2.27;;
4504;SDS011;2265;48.794;9.520;2023-02-28T07:18:09;7.07;;;3.33;;
4504;SDS011;2265;48.794;9.520;2023-02-28T07:20:36;2.93;;;1.80;;
4504;SDS011;2265;48.794;9.520;2023-02-28T07:23:03;3.90;;;2.53;;
4504;SDS011;2265;48.794;9.520;2023-02-28T07:25:30;2.23;;;1.93;;
4504;SDS011;2265;48.794;9.520;2023-02-28T07:27:59;2.27;;;2.07;;
4504;SDS011;2265;48.794;9.520;2023-02-28T07:30:27;3.23;;;2.37;;
4504;SDS011;2265;48.794;9.520;2023-02-28T07:32:56;3.97;;;2.83;;
4504;SDS011;2265;48.794;9.520;2023-02-28T07:35:26;2.60;;;2.43;;
4504;SDS011;2265;48.794;9.520;2023-02-28T07:37:54;8.50;;;2.70;;
4504;SDS011;2265;48.794;9.520;2023-02-28T07:40:21;3.97;;;2.70;;
4504;SDS011;2265;48.794;9.520;2023-02-28T07:42:48;4.47;;;2.10;;
4504;SDS011;2265;48.794;9.520;2023-02-28T07:45:15;4.73;;;2.00;;
4504;SDS011;2265;48.794;9.520;2023-02-28T07:47:42;3.70;;;2.80;;
4504;SDS011;2265;48.794;9.520;2023-02-28T07:50:12;3.17;;;2.50;;
4504;SDS011;2265;48.794;9.520;2023-02-28T07:52:41;4.30;;;2.90;;
4504;SDS011;2265;48.794;9.520;2023-02-28T07:55:08;3.23;;;1.73;;
4504;SDS011;2265;48.794;9.520;2023-02-28T07:57:38;5.00;;;3.07;;
4504;SDS011;2265;48.794;9.520;2023-02-28T08:00:07;4.10;;;2.70;;
4504;SDS011;2265;48.794;9.520;2023-02-28T08:02:37;4.60;;;2.40;;
4504;SDS011;2265;48.794;9.520;2023-02-28T08:05:05;3.87;;;2.20;;
4504;SDS011;2265;48.794;9.520;2023-02-28T08:07:34;3.53;;;3.00;;
4504;SDS011;2265;48.794;9.520;2023-02-28T08:10:01;8.67;;;2.57;;
4504;SDS011;2265;48.794;9.520;2023-02-28T08:12:30;3.50;;;2.70;;
4504;SDS011;2265;48.794;9.520;2023-02-28T08:14:59;7.43;;;2.50;;
4504;SDS011;2265;48.794;9.520;2023-02-28T08:17:26;6.10;;;3.63;;
4504;SDS011;2265;48.794;9.520;2023-02-28T08:19:53;6.80;;;2.93;;
4504;SDS011;2265;48.794;9.520;2023-02-28T08:22:20;2.53;;;1.97;;
4504;SDS011;2265;48.794;9.520;2023-02-28T08:24:48;3.10;;;1.87;;
4504;SDS011;2265;48.794;9.520;2023-02-28T08:27:15;4.10;;;2.13;;
4504;SDS011;2265;48.794;9.520;2023-02-28T08:29:43;3.67;;;2.57;;
4504;SDS011;2265;48.794;9.520;2023-02-28T08:32:11;5.13;;;2.80;;
4504;SDS011;2265;48.794;9.520;2023-02-28T08:34:39;7.33;;;3.00;;
4504;SDS011;2265;48.794;9.520;2023-02-28T08:37:08;3.30;;;2.30;;
4504;SDS011;2265;48.794;9.520;2023-02-28T08:39:37;8.87;;;3.43;;
4504;SDS011;2265;48.794;9.520;2023-02-28T08:42:06;4.97;;;3.13;;
4504;SDS011;2265;48.794;9.520;2023-02-28T08:44:33;5.50;;;3.23;;
4504;SDS011;2265;48.794;9.520;2023-02-28T08:47:03;3.97;;;2.57;;
4504;SDS011;2265;48.794;9.520;2023-02-28T08:49:30;3.57;;;2.90;;
4504;SDS011;2265;48.794;9.520;2023-02-28T08:51:58;5.67;;;2.60;;
4504;SDS011;2265;48.794;9.520;2023-02-28T08:54:25;4.43;;;2.57;;
4504;SDS011;2265;48.794;9.520;2023-02-28T08:56:56;6.67;;;3.20;;
4504;SDS011;2265;48.794;9.520;2023-02-28T08:59:25;2.53;;;2.37;;
4504;SDS011;2265;48.794;9.520;2023-02-28T09:01:52;4.97;;;2.70;;
4504;SDS011;2265;48.794;9.520;2023-02-28T09:04:19;2.90;;;2.33;;
4504;SDS011;2265;48.794;9.520;2023-02-28T09:06:46;3.70;;;2.60;;
4504;SDS011;2265;48.794;9.520;2023-02-28T09:09:13;2.30;;;2.00;;
4504;SDS011;2265;48.794;9.520;2023-02-28T09:11:40;3.70;;;2.03;;
4504;SDS011;2265;48.794;9.520;2023-02-28T09:14:07;4.87;;;2.63;;
4504;SDS011;2265;48.794;9.520;2023-02-28T09:16:36;3.43;;;2.30;;
4504;SDS011;2265;48.794;9.520;2023-02-28T09:19:03;5.57;;;3.30;;
4504;SDS011;2265;48.794;9.520;2023-02-28T09:21:31;4.47;;;3.37;;
4504;SDS011;2265;48.794;9.520;2023-02-28T09:23:58;6.23;;;3.13;;
4504;SDS011;2265;48.794;9.520;2023-02-28T09:26:26;4.50;;;2.60;;
4504;SDS011;2265;48.794;9.520;2023-02-28T09:28:54;6.00;;;2.97;;
4504;SDS011;2265;48.794;9.520;2023-02-28T09:31:26;5.57;;;3.43;;
4504;SDS011;2265;48.794;9.520;2023-02-28T09:33:56;5.17;;;3.30;;
4504;SDS011;2265;48.794;9.520;2023-02-28T09:36:24;6.63;;;2.63;;
4504;SDS011;2265;48.794;9.520;2023-02-28T09:38:53;6.30;;;2.57;;
4504;SDS011;2265;48.794;9.520;2023-02-28T09:41:21;6.87;;;3.57;;
4504;SDS011;2265;48.794;9.520;2023-02-28T09:43:51;3.37;;;2.43;;
4504;SDS011;2265;48.794;9.520;2023-02-28T09:46:25;6.47;;;3.67;;
4504;SDS011;2265;48.794;9.520;2023-02-28T09:48:54;5.40;;;2.90;;
4504;SDS011;2265;48.794;9.520;2023-02-28T09:54:14;3.23;;;2.40;;
4504;SDS011;2265;48.794;9.520;2023-02-28T09:56:44;4.63;;;2.77;;
4504;SDS011;2265;48.794;9.520;2023-02-28T09:59:20;3.93;;;3.23;;
4504;SDS011;2265;48.794;9.520;2023-02-28T10:01:57;2.97;;;2.40;;
4504;SDS011;2265;48.794;9.520;2023-02-28T10:04:40;5.23;;;2.70;;
4504;SDS011;2265;48.794;9.520;2023-02-28T10:07:19;6.50;;;3.30;;
4504;SDS011;2265;48.794;9.520;2023-02-28T10:09:55;4.70;;;3.00;;
4504;SDS011;2265;48.794;9.520;2023-02-28T10:12:26;4.30;;;2.50;;
4504;SDS011;2265;48.794;9.520;2023-02-28T10:14:55;5.73;;;2.90;;
4504;SDS011;2265;48.794;9.520;2023-02-28T10:17:29;2.83;;;2.03;;
4504;SDS011;2265;48.794;9.520;2023-02-28T10:20:07;7.50;;;3.17;;
4504;SDS011;2265;48.794;9.520;2023-02-28T10:22:40;4.50;;;2.57;;
4504;SDS011;2265;48.794;9.520;2023-02-28T10:25:18;3.20;;;2.33;;
4504;SDS011;2265;48.794;9.520;2023-02-28T10:27:47;5.23;;;2.80;;
4504;SDS011;2265;48.794;9.520;2023-02-28T10:30:15;5.13;;;3.23;;
4504;SDS011;2265;48.794;9.520;2023-02-28T10:32:44;5.97;;;3.13;;
4504;SDS011;2265;48.794;9.520;2023-02-28T10:35:17;3.90;;;2.90;;
4504;SDS011;2265;48.794;9.520;2023-02-28T10:37:46;4.13;;;2.87;;
4504;SDS011;2265;48.794;9.520;2023-02-28T10:40:25;3.47;;;3.00;;
4504;SDS011;2265;48.794;9.520;2023-02-28T10:42:55;4.50;;;2.90;;
4504;SDS011;2265;48.794;9.520;2023-02-28T10:45:24;11.10;;;3.70;;
4504;SDS011;2265;48.794;9.520;2023-02-28T10:47:53;4.27;;;2.53;;
4504;SDS011;2265;48.794;9.520;2023-02-28T10:50:30;7.00;;;3.80;;
4504;SDS011;2265;48.794;9.520;2023-02-28T10:55:57;6.43;;;3.10;;
4504;SDS011;2265;48.794;9.520;2023-02-28T10:58:27;6.73;;;3.03;;
4504;SDS011;2265;48.794;9.520;2023-02-28T11:00:56;6.83;;;3.47;;
4504;SDS011;2265;48.794;9.520;2023-02-28T11:03:28;6.33;;;3.27;;
4504;SDS011;2265;48.794;9.520;2023-02-28T11:06:03;6.17;;;3.37;;
4504;SDS011;2265;48.794;9.520;2023-02-28T11:08:34;7.57;;;3.87;;
4504;SDS011;2265;48.794;9.520;2023-02-28T11:11:14;6.20;;;2.70;;
4504;SDS011;2265;48.794;9.520;2023-02-28T11:13:43;6.20;;;3.17;;
4504;SDS011;2265;48.794;9.520;2023-02-28T11:16:13;6.70;;;3.13;;
4504;SDS011;2265;48.794;9.520;2023-02-28T11:18:42;9.17;;;4.40;;
4504;SDS011;2265;48.794;9.520;2023-02-28T11:21:23;9.60;;;3.40;;
4504;SDS011;2265;48.794;9.520;2023-02-28T11:23:54;8.00;;;4.17;;
4504;SDS011;2265;48.794;9.520;2023-02-28T11:26:36;7.63;;;3.43;;
4504;SDS011;2265;48.794;9.520;2023-02-28T11:29:12;8.10;;;4.00;;
4504;SDS011;2265;48.794;9.520;2023-02-28T11:32:00;8.00;;;4.30;;
4504;SDS011;2265;48.794;9.520;2023-02-28T11:34:31;7.07;;;3.83;;
4504;SDS011;2265;48.794;9.520;2023-02-28T11:37:00;5.73;;;3.00;;
4504;SDS011;2265;48.794;9.520;2023-02-28T11:39:30;5.47;;;3.80;;
4504;SDS011;2265;48.794;9.520;2023-02-28T11:42:04;5.97;;;3.80;;
4504;SDS011;2265;48.794;9.520;2023-02-28T11:44:45;6.50;;;3.70;;
4504;SDS011;2265;48.794;9.520;2023-02-28T11:47:30;10.90;;;3.70;;
4504;SDS011;2265;48.794;9.520;2023-02-28T11:50:08;5.47;;;2.63;;
4504;SDS011;2265;48.794;9.520;2023-02-28T11:52:48;8.13;;;4.20;;
4504;SDS011;2265;48.794;9.520;2023-02-28T11:55:19;7.10;;;3.67;;
4504;SDS011;2265;48.794;9.520;2023-02-28T12:00:43;10.67;;;4.57;;
4504;SDS011;2265;48.794;9.520;2023-02-28T12:03:24;6.10;;;3.30;;
4504;SDS011;2265;48.794;9.520;2023-02-28T12:05:57;10.70;;;4.30;;
4504;SDS011;2265;48.794;9.520;2023-02-28T12:08:41;12.47;;;3.97;;
4504;SDS011;2265;48.794;9.520;2023-02-28T12:11:14;9.20;;;3.80;;
4504;SDS011;2265;48.794;9.520;2023-02-28T12:13:55;7.33;;;3.30;;
4504;SDS011;2265;48.794;9.520;2023-02-28T12:19:31;6.80;;;3.77;;
4504;SDS011;2265;48.794;9.520;2023-02-28T12:22:18;9.83;;;3.60;;
4504;SDS011;2265;48.794;9.520;2023-02-28T12:27:54;7.47;;;3.33;;
4504;SDS011;2265;48.794;9.520;2023-02-28T12:30:22;10.70;;;3.60;;
4504;SDS011;2265;48.794;9.520;2023-02-28T12:32:54;6.50;;;3.13;;
4504;SDS011;2265;48.794;9.520;2023-02-28T12:35:25;7.87;;;4.27;;
4504;SDS011;2265;48.794;9.520;2023-02-28T12:38:01;7.63;;;4.10;;
4504;SDS011;2265;48.794;9.520;2023-02-28T12:40:32;11.43;;;3.63;;
4504;SDS011;2265;48.794;9.520;2023-02-28T12:43:09;9.53;;;3.50;;
4504;SDS011;2265;48.794;9.520;2023-02-28T12:45:39;10.23;;;3.90;;
4504;SDS011;2265;48.794;9.520;2023-02-28T12:48:10;10.70;;;4.10;;
4504;SDS011;2265;48.794;9.520;2023-02-28T12:50:41;8.27;;;3.60;;
4504;SDS011;2265;48.794;9.520;2023-02-28T12:53:10;8.97;;;3.70;;
4504;SDS011;2265;48.794;9.520;2023-02-28T12:55:45;7.40;;;3.83;;
4504;SDS011;2265;48.794;9.520;2023-02-28T12:58:25;8.63;;;3.43;;
4504;SDS011;2265;48.794;9.520;2023-02-28T13:01:06;10.27;;;3.73;;
4504;SDS011;2265;48.794;9.520;2023-02-28T13:04:04;6.70;;;3.17;;
4504;SDS011;2265;48.794;9.520;2023-02-28T13:06:55;5.87;;;3.00;;
4504;SDS011;2265;48.794;9.520;2023-02-28T13:09:34;7.80;;;3.63;;
4504;SDS011;2265;48.794;9.520;2023-02-28T13:12:01;6.10;;;3.33;;
4504;SDS011;2265;48.794;9.520;2023-02-28T13:14:41;11.43;;;4.90;;
4504;SDS011;2265;48.794;9.520;2023-02-28T13:17:12;8.40;;;3.43;;
4504;SDS011;2265;48.794;9.520;2023-02-28T13:19:44;8.03;;;4.10;;
4504;SDS011;2265;48.794;9.520;2023-02-28T13:22:36;9.00;;;4.20;;
4504;SDS011;2265;48.794;9.520;2023-02-28T13:31:33;5.23;;;3.20;;
4504;SDS011;2265;48.794;9.520;2023-02-28T13:34:38;8.17;;;3.90;;
4504;SDS011;2265;48.794;9.520;2023-02-28T13:40:28;8.20;;;3.87;;
4504;SDS011;2265;48.794;9.520;2023-02-28T13:43:02;8.90;;;3.73;;
4504;SDS011;2265;48.794;9.520;2023-02-28T13:45:30;11.50;;;4.33;;
4504;SDS011;2265;48.794;9.520;2023-02-28T13:48:04;8.63;;;4.00;;
4504;SDS011;2265;48.794;9.520;2023-02-28T13:50:42;6.97;;;3.97;;
4504;SDS011;2265;48.794;9.520;2023-02-28T13:53:21;11.90;;;4.90;;
4504;SDS011;2265;48.794;9.520;2023-02-28T13:56:03;9.23;;;3.90;;
4504;SDS011;2265;48.794;9.520;2023-02-28T13:58:42;6.00;;;3.00;;
4504;SDS011;2265;48.794;9.520;2023-02-28T14:01:23;11.43;;;4.13;;
4504;SDS011;2265;48.794;9.520;2023-02-28T14:04:17;9.47;;;3.93;;
4504;SDS011;2265;48.794;9.520;2023-02-28T14:07:04;12.30;;;4.60;;
4504;SDS011;2265;48.794;9.520;2023-02-28T14:09:33;9.23;;;3.97;;
4504;SDS011;2265;48.794;9.520;2023-02-28T14:15:02;8.93;;;3.90;;
4504;SDS011;2265;48.794;9.520;2023-02-28T14:17:31;10.17;;;4.30;;
4504;SDS011;2265;48.794;9.520;2023-02-28T14:20:01;9.30;;;3.97;;
4504;SDS011;2265;48.794;9.520;2023-02-28T14:22:38;10.20;;;4.23;;
4504;SDS011;2265;48.794;9.520;2023-02-28T14:25:17;12.53;;;4.53;;
4504;SDS011;2265;48.794;9.520;2023-02-28T14:27:53;7.73;;;3.67;;
4504;SDS011;2265;48.794;9.520;2023-02-28T14:30:42;10.77;;;4.30;;
4504;SDS011;2265;48.794;9.520;2023-02-28T14:33:25;7.97;;;3.77;;
4504;SDS011;2265;48.794;9.520;2023-02-28T14:36:09;8.10;;;3.73;;
4504;SDS011;2265;48.794;9.520;2023-02-28T14:38:42;7.93;;;4.00;;
4504;SDS011;2265;48.794;9.520;2023-02-28T14:41:16;9.07;;;4.00;;
4504;SDS011;2265;48.794;9.520;2023-02-28T14:43:49;9.67;;;4.27;;
4504;SDS011;2265;48.794;9.520;2023-02-28T14:46:18;12.23;;;4.20;;
4504;SDS011;2265;48.794;9.520;2023-02-28T14:48:46;8.30;;;4.30;;
4504;SDS011;2265;48.794;9.520;2023-02-28T14:51:19;9.20;;;3.67;;
4504;SDS011;2265;48.794;9.520;2023-02-28T14:53:48;9.77;;;4.20;;
4504;SDS011;2265;48.794;9.520;2023-02-28T14:56:21;9.23;;;4.10;;
4504;SDS011;2265;48.794;9.520;2023-02-28T14:58:52;10.83;;;4.40;;
4504;SDS011;2265;48.794;9.520;2023-02-28T15:01:22;8.63;;;4.00;;
4504;SDS011;2265;48.794;9.520;2023-02-28T15:03:56;10.70;;;4.20;;
4504;SDS011;2265;48.794;9.520;2023-02-28T15:06:27;10.77;;;4.30;;
4504;SDS011;2265;48.794;9.520;2023-02-28T15:09:09;6.63;;;3.90;;
4504;SDS011;2265;48.794;9.520;2023-02-28T15:11:37;7.83;;;4.00;;
4504;SDS011;2265;48.794;9.520;2023-02-28T15:14:07;7.20;;;3.60;;
4504;SDS011;2265;48.794;9.520;2023-02-28T15:16:40;10.10;;;4.20;;
4504;SDS011;2265;48.794;9.520;2023-02-28T15:19:12;9.10;;;3.70;;
4504;SDS011;2265;48.794;9.520;2023-02-28T15:21:43;9.10;;;4.07;;
4504;SDS011;2265;48.794;9.520;2023-02-28T15:24:13;9.67;;;4.80;;
4504;SDS011;2265;48.794;9.520;2023-02-28T15:26:49;9.13;;;3.97;;
4504;SDS011;2265;48.794;9.520;2023-02-28T15:29:21;8.20;;;4.00;;
4504;SDS011;2265;48.794;9.520;2023-02-28T15:31:50;5.27;;;3.73;;
4504;SDS011;2265;48.794;9.520;2023-02-28T15:34:22;10.90;;;4.37;;
4504;SDS011;2265;48.794;9.520;2023-02-28T15:36:57;8.10;;;3.90;;
4504;SDS011;2265;48.794;9.520;2023-02-28T15:39:25;9.30;;;4.13;;
4504;SDS011;2265;48.794;9.520;2023-02-28T15:44:38;9.97;;;4.07;;
4504;SDS011;2265;48.794;9.520;2023-02-28T15:47:06;10.83;;;3.83;;
4504;SDS011;2265;48.794;9.520;2023-02-28T15:49:44;8.47;;;4.50;;
4504;SDS011;2265;48.794;9.520;2023-02-28T15:52:17;7.70;;;4.13;;
4504;SDS011;2265;48.794;9.520;2023-02-28T15:54:47;7.93;;;3.80;;
4504;SDS011;2265;48.794;9.520;2023-02-28T15:57:15;9.93;;;3.80;;
4504;SDS011;2265;48.794;9.520;2023-02-28T15:59:49;10.10;;;4.37;;
4504;SDS011;2265;48.794;9.520;2023-02-28T16:02:19;7.80;;;3.63;;
4504;SDS011;2265;48.794;9.520;2023-02-28T16:04:56;9.23;;;3.93;;
4504;SDS011;2265;48.794;9.520;2023-02-28T16:07:26;7.80;;;3.83;;
4504;SDS011;2265;48.794;9.520;2023-02-28T16:09:54;8.50;;;4.07;;
4504;SDS011;2265;48.794;9.520;2023-02-28T16:12:23;5.93;;;3.60;;
4504;SDS011;2265;48.794;9.520;2023-02-28T16:14:54;9.37;;;4.30;;
4504;SDS011;2265;48.794;9.520;2023-02-28T16:17:25;7.83;;;4.10;;